Terminal Aerodrome Forecast
Issued by NWS

Home | Current Version | Previous Version | Text Only | Print | Product List | Glossary On
Versions: 1 2 3 4 5 6 7 8 9 10 11 12 13 14 15 16 17 18
431
FTUS46 KMTR 270932 AAC
TAFOAK
TAF AMD
KOAK 270932Z 2710/2812 27015G22KT P6SM FEW008 SCT012 OVC025
      TEMPO 2710/2711 BKN014
     FM271200 27012KT P6SM FEW012 SCT200
     FM271900 27016G24KT P6SM FEW020 SCT250
     FM280400 29010KT P6SM FEW020 SCT250
     FM280900 33004KT P6SM FEW015 SCT250=

USA.gov is the U.S. government's official web portal to all federal, state and local government web resources and services.